Search for airport 
image banner adimage banner adimage banner ad
image banner ad

A34 - Dayton Valley Airpark

Located in Dayton/Carson City, United States

ICAO - A34, IATA -

Data provided by Airmate  

General information

Coordinates: N39°14'18" W119°33'20"
Elevation is 4414 feet MSL.
Magnetic variation is 16° East
View others Airports in Nevada

Operational data

Special qualification required
Current time UTC:
Current local time:
Weather at : KCXP - Carson ( 16 km )
METAR: KCXP 092315Z AUTO 19007G15KT 140V210 10SM CLR 22/M09 A2994 RMK AO2
TAF: KCXP 091720Z 0918/1018 VRB05KT P6SM SKC FM092200 32010G18KT P6SM SCT100 FM100600 34014G23KT P6SM SKC FM101300 35008KT P6SM SKC
View NOTAMs / SUP AIP / TFR affecting this airport [VIEW]
Communications frequencies: [VIEW]

Runways:

RWY identifierQFULength (ft)Width (ft)SurfaceLDA (ft)
0565°534375ASPH
23245°534375ASPH

Airport contact information

Address: Dayton/Carson City United States

Satellite view of A34